Croswell, Michigan
Current Conditions -  °F | °C
As of 1:00 PM on Sunday 25 Jan 2015 (Local Time) from CYZR Reporting Station
Few Clouds Few Clouds  
Wind Chill:   Ceiling: Unl
Heat Index: 19°   Visibility: 9mi
Dew Point: 12°   Wind: 15mph
Humidity: 74%   Direction: 30°NNE
Pressure: 29.94"   Gusts: 21mph
Location:  43.28°N, 82.62°W
Report Text: CYZR 251800Z AUTO 03013G18KT 9SM FEW018 M07/M11 A2994 RMK SLP149
Loading
Personal Weather Stations






























Interactive Weather Map New forecast layout! Learn more

10-Day Weather Forecast

Advertisements
Track Severe Weather on mobile